createdAt,value
2023-04-02T00:02:34.048Z,7.66
2023-04-02T00:05:55.928Z,7.64
2023-04-02T00:09:23.966Z,7.61
2023-04-02T00:12:26.456Z,7.73
2023-04-02T00:15:28.992Z,7.78
2023-04-02T00:18:32.416Z,7.64
2023-04-02T00:21:37.255Z,7.70
2023-04-02T00:24:40.503Z,7.71
2023-04-02T00:27:43.208Z,7.72
2023-04-02T00:30:56.462Z,7.56
2023-04-02T00:34:00.597Z,7.57
2023-04-02T00:37:03.146Z,7.25
2023-04-02T00:40:10.165Z,6.92
2023-04-02T00:43:16.775Z,6.74
2023-04-02T00:46:24.274Z,6.51
2023-04-02T00:49:36.889Z,6.47
2023-04-02T00:52:41.861Z,6.46
2023-04-02T00:55:44.216Z,6.52
2023-04-02T00:58:51.770Z,6.42
2023-04-02T01:02:01.821Z,6.42
2023-04-02T01:05:23.564Z,6.55
2023-04-02T01:09:03.017Z,6.50
2023-04-02T01:12:25.383Z,6.47
2023-04-02T01:15:40.624Z,6.29
2023-04-02T01:18:56.649Z,6.25
2023-04-02T01:22:18.310Z,6.28
2023-04-02T01:25:29.051Z,6.06
2023-04-02T01:29:06.864Z,6.19
2023-04-02T01:32:17.628Z,6.04
2023-04-02T01:35:21.817Z,5.92
2023-04-02T01:38:28.122Z,5.96
2023-04-02T01:41:36.616Z,5.89
2023-04-02T01:44:45.383Z,5.94
2023-04-02T01:47:47.843Z,5.92
2023-04-02T01:50:52.666Z,6.11
2023-04-02T01:53:55.382Z,6.07
2023-04-02T01:56:57.970Z,6.27
2023-04-02T02:00:02.030Z,6.16
2023-04-02T02:03:06.330Z,6.24
2023-04-02T02:06:12.257Z,6.28
2023-04-02T02:09:26.868Z,6.36
2023-04-02T02:12:29.100Z,6.39
2023-04-02T02:15:33.662Z,6.39
2023-04-02T02:18:36.484Z,6.57
2023-04-02T02:21:47.912Z,6.74
2023-04-02T02:24:50.581Z,7.13
2023-04-02T02:27:59.586Z,7.22
2023-04-02T02:31:18.598Z,7.10
2023-04-02T02:34:25.147Z,7.29
2023-04-02T02:37:36.932Z,7.43
2023-04-02T02:40:43.807Z,7.43
2023-04-02T02:43:59.423Z,7.53
2023-04-02T02:47:04.297Z,7.56
2023-04-02T02:50:09.013Z,7.68
2023-04-02T02:53:21.714Z,7.64
2023-04-02T02:56:24.154Z,7.67
2023-04-02T02:59:27.048Z,7.75
2023-04-02T03:02:29.468Z,7.75
2023-04-02T03:05:31.980Z,7.65
2023-04-02T03:08:48.841Z,7.63
2023-04-02T03:11:56.322Z,7.67
2023-04-02T03:15:19.022Z,7.73
2023-04-02T03:18:27.319Z,7.72
2023-04-02T03:21:49.990Z,7.73
2023-04-02T03:24:59.807Z,7.80
2023-04-02T03:28:05.430Z,7.87
2023-04-02T03:31:31.516Z,7.82
2023-04-02T03:34:38.583Z,7.80
2023-04-02T03:37:47.809Z,7.72
2023-04-02T03:41:16.418Z,7.74
2023-04-02T03:44:29.035Z,7.80
2023-04-02T03:47:46.865Z,7.53
2023-04-02T03:51:14.216Z,7.41
2023-04-02T03:54:16.857Z,7.33
2023-04-02T03:57:30.035Z,7.32
2023-04-02T04:00:44.163Z,7.41
2023-04-02T04:03:50.838Z,7.03
2023-04-02T04:06:53.648Z,6.73
2023-04-02T04:09:57.010Z,6.46
2023-04-02T04:13:11.867Z,6.40
2023-04-02T04:16:20.882Z,6.30
2023-04-02T04:19:34.714Z,6.34
2023-04-02T04:22:37.876Z,6.19
2023-04-02T04:25:40.536Z,6.19
2023-04-02T04:28:58.421Z,6.00
2023-04-02T04:32:33.770Z,5.97
2023-04-02T04:35:40.268Z,6.04
2023-04-02T04:38:49.298Z,6.00
2023-04-02T04:41:52.360Z,6.05
2023-04-02T04:45:13.227Z,6.17
2023-04-02T04:48:26.882Z,6.12
2023-04-02T04:51:36.535Z,6.07
2023-04-02T04:54:39.597Z,6.24
2023-04-02T04:57:42.283Z,6.34
2023-04-02T05:00:59.374Z,6.38
2023-04-02T05:04:09.400Z,6.61
2023-04-02T05:07:21.692Z,6.91
2023-04-02T05:10:39.140Z,7.24
2023-04-02T05:14:00.998Z,7.77
2023-04-02T05:17:10.857Z,8.15
2023-04-02T05:20:17.044Z,8.72
2023-04-02T05:23:25.609Z,9.35
2023-04-02T05:26:33.581Z,9.64
2023-04-02T05:29:38.961Z,9.79
2023-04-02T05:32:44.652Z,10.02
2023-04-02T05:35:49.624Z,10.18
2023-04-02T05:38:52.665Z,10.24
2023-04-02T05:42:20.318Z,10.33
2023-04-02T05:45:36.004Z,10.30
2023-04-02T05:48:41.066Z,10.36
2023-04-02T05:51:47.337Z,10.34
2023-04-02T05:54:53.376Z,10.24
2023-04-02T05:58:21.467Z,10.10
2023-04-02T06:01:41.401Z,9.99
2023-04-02T06:04:53.823Z,10.18
2023-04-02T06:08:01.396Z,10.33
2023-04-02T06:11:11.831Z,10.71
2023-04-02T06:14:15.570Z,10.59
2023-04-02T06:17:19.363Z,10.47
2023-04-02T06:20:21.568Z,10.57
2023-04-02T06:23:33.205Z,10.51
2023-04-02T06:26:39.315Z,10.75
2023-04-02T06:29:43.198Z,11.02
2023-04-02T06:32:45.496Z,11.42
2023-04-02T06:35:51.061Z,11.72
2023-04-02T06:38:55.753Z,11.84
2023-04-02T06:42:14.177Z,11.91
2023-04-02T06:45:24.343Z,12.43
2023-04-02T06:48:27.566Z,12.45
2023-04-02T06:51:30.427Z,12.38
2023-04-02T06:54:32.650Z,12.85
2023-04-02T06:57:35.870Z,12.74
2023-04-02T07:00:48.953Z,12.69
2023-04-02T07:03:51.720Z,12.46
2023-04-02T07:06:53.899Z,12.12
2023-04-02T07:09:56.372Z,12.17
2023-04-02T07:12:58.582Z,12.40
2023-04-02T07:16:01.389Z,12.20
2023-04-02T07:19:04.302Z,12.61
2023-04-02T07:22:06.485Z,12.38
2023-04-02T07:25:09.069Z,12.85
2023-04-02T07:28:12.375Z,12.43
2023-04-02T07:31:20.751Z,12.14
2023-04-02T07:34:22.983Z,12.34
2023-04-02T07:37:25.378Z,12.47
2023-04-02T07:40:27.567Z,12.59
2023-04-02T07:43:29.771Z,12.60
2023-04-02T07:46:32.076Z,12.63
2023-04-02T07:49:34.286Z,12.57
2023-04-02T07:52:42.159Z,12.87
2023-04-02T07:55:44.371Z,13.05
2023-04-02T07:58:46.826Z,13.37
2023-04-02T08:01:49.071Z,13.35
2023-04-02T08:04:51.795Z,13.45
2023-04-02T08:07:57.429Z,13.36
2023-04-02T08:10:59.570Z,13.14
2023-04-02T08:14:01.761Z,13.23
2023-04-02T08:17:04.113Z,13.45
2023-04-02T08:20:07.987Z,13.34
2023-04-02T08:23:18.010Z,13.50
2023-04-02T08:26:20.498Z,13.25
2023-04-02T08:29:23.057Z,13.32
2023-04-02T08:32:26.535Z,13.45
2023-04-02T08:35:28.824Z,13.54
2023-04-02T08:38:31.169Z,13.71
2023-04-02T08:41:45.735Z,13.65
2023-04-02T08:45:24.149Z,13.84
2023-04-02T08:48:28.207Z,13.93
2023-04-02T08:51:36.789Z,14.07
2023-04-02T08:54:39.074Z,14.03
2023-04-02T08:57:48.190Z,14.11
2023-04-02T09:00:54.052Z,14.44
2023-04-02T09:03:58.609Z,14.62
2023-04-02T09:07:01.010Z,14.73
2023-04-02T09:10:04.401Z,14.60
2023-04-02T09:13:18.357Z,14.41
2023-04-02T09:16:23.377Z,14.48
2023-04-02T09:19:31.645Z,14.98
2023-04-02T09:22:35.105Z,15.18
2023-04-02T09:25:51.048Z,14.83
2023-04-02T09:29:22.581Z,14.94
2023-04-02T09:32:35.513Z,15.14
2023-04-02T09:35:54.759Z,15.56
2023-04-02T09:38:59.350Z,15.83
2023-04-02T09:42:07.497Z,15.57
2023-04-02T09:45:23.735Z,15.10
2023-04-02T09:48:30.258Z,15.17
2023-04-02T09:51:34.720Z,15.17
2023-04-02T09:54:41.990Z,14.91
2023-04-02T09:57:45.595Z,14.86
2023-04-02T10:00:52.135Z,14.93
2023-04-02T10:03:54.528Z,15.02
2023-04-02T10:06:58.026Z,14.88
2023-04-02T10:10:02.171Z,15.01
2023-04-02T10:13:30.709Z,14.92
2023-04-02T10:16:52.256Z,14.96
2023-04-02T10:19:58.564Z,14.92
2023-04-02T10:23:00.829Z,14.92
2023-04-02T10:26:44.538Z,14.81
2023-04-02T10:29:46.653Z,14.95
2023-04-02T10:33:28.710Z,15.02
2023-04-02T10:36:52.104Z,15.03
2023-04-02T10:39:58.588Z,14.84
2023-04-02T10:43:13.158Z,14.85
2023-04-02T10:46:43.864Z,14.83
2023-04-02T10:49:53.647Z,15.01
2023-04-02T10:53:11.824Z,14.52
2023-04-02T10:56:14.667Z,14.70
2023-04-02T10:59:23.790Z,14.97
2023-04-02T11:02:28.953Z,15.08
2023-04-02T11:05:44.424Z,15.12
2023-04-02T11:08:49.110Z,15.29
2023-04-02T11:11:53.479Z,14.96
2023-04-02T11:14:56.293Z,14.97
2023-04-02T11:17:58.742Z,15.61
2023-04-02T11:21:03.387Z,15.81
2023-04-02T11:24:05.926Z,15.80
2023-04-02T11:27:11.321Z,16.20
2023-04-02T11:30:18.098Z,16.23
2023-04-02T11:33:38.255Z,16.13
2023-04-02T11:36:52.937Z,15.97
2023-04-02T11:40:18.227Z,16.23
2023-04-02T11:43:32.639Z,16.55
2023-04-02T11:46:39.652Z,16.59
2023-04-02T11:50:01.401Z,16.41
2023-04-02T11:53:10.548Z,15.89
2023-04-02T11:56:45.393Z,16.16
2023-04-02T12:00:02.930Z,15.99
2023-04-02T12:03:13.778Z,15.95
2023-04-02T12:06:28.096Z,16.46
2023-04-02T12:09:49.792Z,16.66
2023-04-02T12:12:52.080Z,16.69
2023-04-02T12:15:57.734Z,16.56
2023-04-02T12:19:00.678Z,16.72
2023-04-02T12:22:02.927Z,16.81
2023-04-02T12:25:27.091Z,16.92
2023-04-02T12:28:31.333Z,16.76
2023-04-02T12:31:33.731Z,15.95
2023-04-02T12:34:36.361Z,15.61
2023-04-02T12:37:38.532Z,15.36
2023-04-02T12:40:40.891Z,15.49
2023-04-02T12:43:43.176Z,15.51
2023-04-02T12:46:46.084Z,15.76
2023-04-02T12:49:48.491Z,15.79
2023-04-02T12:52:53.281Z,15.82
2023-04-02T12:55:56.244Z,16.21
2023-04-02T12:59:00.386Z,16.32
2023-04-02T13:02:14.728Z,16.46
2023-04-02T13:05:41.438Z,16.01
2023-04-02T13:08:43.765Z,15.89
2023-04-02T13:11:46.036Z,15.77
2023-04-02T13:14:54.954Z,16.11
2023-04-02T13:18:12.393Z,16.30
2023-04-02T13:21:14.671Z,16.27
2023-04-02T13:24:22.062Z,16.56
2023-04-02T13:27:24.315Z,16.68
2023-04-02T13:30:28.109Z,16.59
2023-04-02T13:33:30.500Z,16.67
2023-04-02T13:36:32.700Z,16.92
2023-04-02T13:39:34.893Z,16.92
2023-04-02T13:42:37.224Z,16.71
2023-04-02T13:45:40.858Z,16.36
2023-04-02T13:48:43.286Z,15.96
2023-04-02T13:51:47.982Z,15.61
2023-04-02T13:54:53.164Z,15.43
2023-04-02T13:57:56.715Z,15.66
2023-04-02T14:00:58.958Z,15.58
2023-04-02T14:04:02.494Z,15.53
2023-04-02T14:07:34.445Z,15.79
2023-04-02T14:11:03.214Z,15.97
2023-04-02T14:14:39.922Z,16.26
2023-04-02T14:18:00.854Z,16.21
2023-04-02T14:21:03.671Z,16.27
2023-04-02T14:24:23.535Z,16.17
2023-04-02T14:27:49.251Z,15.87
2023-04-02T14:31:07.181Z,15.55
2023-04-02T14:34:22.077Z,14.49
2023-04-02T14:37:33.293Z,13.72
2023-04-02T14:41:05.671Z,13.04
2023-04-02T14:44:09.095Z,12.54
2023-04-02T14:47:18.110Z,12.45
2023-04-02T14:50:28.030Z,12.26
2023-04-02T14:53:42.677Z,12.04
2023-04-02T14:56:51.960Z,11.85
2023-04-02T14:59:57.079Z,11.75
2023-04-02T15:03:14.661Z,11.84
2023-04-02T15:06:24.951Z,11.84
2023-04-02T15:09:32.349Z,11.81
2023-04-02T15:12:37.368Z,11.94
2023-04-02T15:15:45.184Z,12.00
2023-04-02T15:18:51.639Z,11.86
2023-04-02T15:22:03.965Z,11.54
2023-04-02T15:25:09.968Z,11.59
2023-04-02T15:28:29.998Z,11.75
2023-04-02T15:31:33.896Z,11.96
2023-04-02T15:34:48.226Z,11.76
2023-04-02T15:38:11.645Z,11.83
2023-04-02T15:41:23.878Z,11.77
2023-04-02T15:44:26.144Z,11.71
2023-04-02T15:47:28.634Z,11.73
2023-04-02T15:50:58.275Z,11.92
2023-04-02T15:54:12.864Z,11.99
2023-04-02T15:57:15.020Z,12.18
2023-04-02T16:00:27.897Z,12.12
2023-04-02T16:03:42.248Z,12.17
2023-04-02T16:07:10.720Z,12.15
2023-04-02T16:10:37.945Z,12.21
2023-04-02T16:13:44.179Z,12.01
2023-04-02T16:16:48.432Z,11.68
2023-04-02T16:20:13.955Z,11.64
2023-04-02T16:23:28.067Z,11.69
2023-04-02T16:26:39.817Z,11.82
2023-04-02T16:29:55.476Z,11.77
2023-04-02T16:33:06.979Z,11.71
2023-04-02T16:36:28.390Z,11.66
2023-04-02T16:39:39.226Z,11.58
2023-04-02T16:43:07.342Z,11.62
2023-04-02T16:46:39.654Z,11.50
2023-04-02T16:49:58.581Z,11.34
2023-04-02T16:53:23.929Z,11.31
2023-04-02T16:56:35.289Z,11.38
2023-04-02T16:59:51.991Z,11.43
2023-04-02T17:03:32.031Z,11.57
2023-04-02T17:06:48.800Z,11.57
2023-04-02T17:09:53.398Z,11.59
2023-04-02T17:13:08.101Z,11.56
2023-04-02T17:16:20.864Z,11.46
2023-04-02T17:19:26.161Z,11.41
2023-04-02T17:22:30.647Z,11.35
2023-04-02T17:25:37.477Z,11.37
2023-04-02T17:28:39.961Z,11.25
2023-04-02T17:31:43.639Z,11.26
2023-04-02T17:34:46.175Z,11.08
2023-04-02T17:38:13.989Z,11.10
2023-04-02T17:42:06.837Z,11.02
2023-04-02T17:45:20.442Z,10.73
2023-04-02T17:48:33.359Z,10.75
2023-04-02T17:51:52.168Z,10.66
2023-04-02T17:55:17.397Z,10.64
2023-04-02T17:58:47.963Z,10.60
2023-04-02T18:01:56.564Z,10.52
2023-04-02T18:05:12.729Z,10.53
2023-04-02T18:08:34.553Z,10.46
2023-04-02T18:11:55.801Z,10.44
2023-04-02T18:15:10.397Z,10.51
2023-04-02T18:18:37.008Z,10.48
2023-04-02T18:21:48.647Z,10.44
2023-04-02T18:25:09.931Z,10.40
2023-04-02T18:28:57.090Z,10.33
2023-04-02T18:32:27.262Z,10.32
2023-04-02T18:35:57.798Z,10.24
2023-04-02T18:39:10.421Z,10.21
2023-04-02T18:42:50.603Z,10.10
2023-04-02T18:45:59.110Z,10.01
2023-04-02T18:49:06.228Z,9.95
2023-04-02T18:52:15.344Z,9.95
2023-04-02T18:55:21.136Z,9.91
2023-04-02T18:58:42.737Z,10.02
2023-04-02T19:01:49.552Z,9.96
2023-04-02T19:05:01.545Z,9.87
2023-04-02T19:08:10.921Z,9.74
2023-04-02T19:11:17.020Z,9.73
2023-04-02T19:14:21.015Z,9.55
2023-04-02T19:17:31.594Z,9.66
2023-04-02T19:20:50.413Z,9.68
2023-04-02T19:24:07.064Z,9.65
2023-04-02T19:27:32.668Z,9.61
2023-04-02T19:31:12.670Z,9.58
2023-04-02T19:34:27.293Z,9.66
2023-04-02T19:37:39.774Z,9.58
2023-04-02T19:41:00.578Z,9.52
2023-04-02T19:44:03.144Z,9.40
2023-04-02T19:47:05.684Z,9.44
2023-04-02T19:50:08.707Z,9.42
2023-04-02T19:53:11.557Z,9.39
2023-04-02T19:56:14.103Z,9.36
2023-04-02T19:59:18.581Z,9.28
2023-04-02T20:02:21.527Z,9.32
2023-04-02T20:05:23.729Z,9.30
2023-04-02T20:08:26.904Z,9.37
2023-04-02T20:11:29.621Z,9.39
2023-04-02T20:14:31.814Z,9.21
2023-04-02T20:17:34.273Z,9.21
2023-04-02T20:20:38.047Z,9.08
2023-04-02T20:23:41.092Z,8.97
2023-04-02T20:26:43.572Z,8.97
2023-04-02T20:29:46.644Z,9.10
2023-04-02T20:32:49.316Z,9.20
2023-04-02T20:35:52.235Z,9.21
2023-04-02T20:38:54.607Z,8.90
2023-04-02T20:42:01.147Z,8.70
2023-04-02T20:45:06.158Z,8.65
2023-04-02T20:48:08.362Z,8.71
2023-04-02T20:51:14.089Z,8.56
2023-04-02T20:54:31.645Z,8.50
2023-04-02T20:57:34.076Z,8.46
2023-04-02T21:00:36.605Z,8.59
2023-04-02T21:03:40.054Z,8.40
2023-04-02T21:06:42.419Z,8.37
2023-04-02T21:09:44.620Z,8.21
2023-04-02T21:12:46.867Z,8.18
2023-04-02T21:15:49.144Z,8.21
2023-04-02T21:18:52.990Z,7.91
2023-04-02T21:21:55.456Z,7.59
2023-04-02T21:24:57.633Z,7.50
2023-04-02T21:27:59.828Z,7.41
2023-04-02T21:31:11.286Z,7.22
2023-04-02T21:34:14.615Z,6.92
2023-04-02T21:37:16.787Z,6.86
2023-04-02T21:40:19.139Z,6.74
2023-04-02T21:43:21.316Z,6.70
2023-04-02T21:46:26.092Z,6.61
2023-04-02T21:49:29.744Z,6.68
2023-04-02T21:52:32.436Z,6.63
2023-04-02T21:55:34.587Z,6.55
2023-04-02T21:58:36.894Z,6.64
2023-04-02T22:01:42.401Z,6.62
2023-04-02T22:04:45.192Z,6.61
2023-04-02T22:07:47.484Z,6.60
2023-04-02T22:10:49.647Z,6.62
2023-04-02T22:13:52.057Z,6.59
2023-04-02T22:16:54.741Z,6.70
2023-04-02T22:19:56.996Z,6.73
2023-04-02T22:22:59.192Z,6.69
2023-04-02T22:26:02.276Z,6.46
2023-04-02T22:29:04.905Z,6.36
2023-04-02T22:32:07.090Z,6.19
2023-04-02T22:35:09.531Z,6.07
2023-04-02T22:38:11.686Z,6.00
2023-04-02T22:41:19.284Z,5.87
2023-04-02T22:44:21.669Z,5.96
2023-04-02T22:47:23.936Z,6.02
2023-04-02T22:50:26.373Z,6.11
2023-04-02T22:53:28.761Z,6.13
2023-04-02T22:56:35.361Z,6.35
2023-04-02T22:59:37.607Z,6.47
2023-04-02T23:02:40.472Z,6.70
2023-04-02T23:05:42.964Z,6.55
2023-04-02T23:08:46.060Z,6.38
2023-04-02T23:11:48.290Z,6.41
2023-04-02T23:14:50.939Z,6.52
2023-04-02T23:17:53.161Z,6.61
2023-04-02T23:20:55.697Z,6.57
2023-04-02T23:23:58.406Z,6.58
2023-04-02T23:27:00.636Z,6.48
2023-04-02T23:30:02.958Z,6.51
2023-04-02T23:33:05.214Z,6.43
2023-04-02T23:36:14.359Z,6.36
2023-04-02T23:39:16.999Z,6.35
2023-04-02T23:42:19.178Z,6.35
2023-04-02T23:45:21.360Z,6.21
2023-04-02T23:48:23.758Z,6.35
2023-04-02T23:51:26.692Z,6.27
2023-04-02T23:54:28.877Z,6.13
2023-04-02T23:57:31.478Z,6.18
